Satsop, Washington
Current Conditions -  °F | °C
As of 8:53 PM on Saturday 25 Oct 2014 (Local Time) from KHQM Reporting Station
Broken Clouds Broken Clouds  
Wind Chill: 56°   Ceiling: 6000
Heat Index: 56°   Visibility: 7mi
Dew Point: 47°   Wind: 22mph
Humidity: 72%   Direction: 250°WSW
Pressure: 29.66"   Gusts: 31mph
Location:  47°N, 123.48°W
Report Text: KHQM 260353Z AUTO 25019G27KT 7SM SCT037 BKN060 13/08 A2966 RMK AO2 PK WND 25037/0307 SLP046 T01330083
Loading
Personal Weather Stations






























Interactive Weather Map
Tropical Storm Tracking
New forecast layout! Learn more

10-Day Weather Forecast

Advertisements
Track Severe Weather on mobile